• Join FlightAware (Why Join?)
  • Login
  • US Flag 
Rudolph Flight #1: Arrived! 
04:09AM EST


 

Airport Tracker/Info


-or-


 

Live Flight TrackerFlight Track Log ✈ TAM3294 ✈ 15-May-2012 ✈ SBPA / POA - SBGR / GRU

Flight Track Log - Related Links

Times and Time Zones

All times are in EDT time to prevent confusion due to time zone crossing. See the TAM3294 flight status page for this flight to view local times or setup timezone preferences in your user account.

Time Position Orientation Groundspeed Altitude Reporting Facility
EDT Latitude Longitude Course Direction KTS MPH feet Rate Location/Type
12:49PM -27.9916 -49.6651 33° Northeast  Level Estimated
12:50PM -27.9129 -49.6072 33° Northeast  Level Estimated
12:51PM -27.8341 -49.5495 33° Northeast  Level Estimated
12:52PM -27.7552 -49.4918 33° Northeast  Level Estimated
12:53PM -27.6764 -49.4342 33° Northeast  Level Estimated
12:54PM -27.5975 -49.3767 33° Northeast  Level Estimated
12:55PM -27.5186 -49.3193 33° Northeast  Level Estimated
12:56PM -27.4397 -49.2620 33° Northeast  Level Estimated
12:57PM -27.3608 -49.2047 33° Northeast  Level Estimated
12:58PM -27.2818 -49.1475 33° Northeast  Level Estimated
12:59PM -27.2028 -49.0905 33° Northeast  Level Estimated
01:00PM -27.1238 -49.0335 33° Northeast  Level Estimated
01:01PM -27.0448 -48.9765 33° Northeast  Level Estimated
01:02PM -26.9657 -48.9197 33° Northeast  Level Estimated
01:03PM -26.8867 -48.8629 33° Northeast  Level Estimated
01:04PM -26.8076 -48.8062 33° Northeast  Level Estimated
01:05PM -26.7284 -48.7496 33° Northeast  Level Estimated
01:06PM -26.6493 -48.6931 33° Northeast  Level Estimated
01:07PM -26.5701 -48.6366 33° Northeast  Level Estimated
01:08PM -26.4909 -48.5802 32° Northeast  Level Estimated
01:09PM -26.4117 -48.5239 32° Northeast  Level Estimated
01:10PM -26.3325 -48.4677 32° Northeast  Level Estimated
01:11PM -26.2532 -48.4116 32° Northeast  Level Estimated
01:12PM -26.1740 -48.3555 32° Northeast  Level Estimated
01:13PM -26.0947 -48.2995 32° Northeast  Level Estimated
01:14PM -26.0153 -48.2436 32° Northeast  Level Estimated
01:15PM -25.9360 -48.1878 32° Northeast  Level Estimated
01:16PM -25.8566 -48.1320 32° Northeast  Level Estimated
01:17PM -25.7773 -48.0763 32° Northeast  Level Estimated
01:18PM -25.6978 -48.0207 32° Northeast  Level Estimated
01:19PM -25.6184 -47.9652 32° Northeast  Level Estimated
01:20PM -25.5390 -47.9097 32° Northeast  Level Estimated
01:21PM -25.4595 -47.8543 32° Northeast  Level Estimated
01:22PM -25.3800 -47.7990 32° Northeast  Level Estimated
01:23PM -25.3005 -47.7438 32° Northeast  Level Estimated
01:24PM -25.2210 -47.6886 32° Northeast  Level Estimated
01:25PM -25.1414 -47.6335 32° Northeast  Level Estimated
01:26PM -25.0618 -47.5785 32° Northeast  Level Estimated
01:27PM -24.9823 -47.5235 32° Northeast  Level Estimated
01:28PM -24.9026 -47.4686 32° Northeast  Level Estimated
01:29PM -24.8230 -47.4138 32° Northeast  Level Estimated
01:30PM -24.7434 -47.3591 32° Northeast  Level Estimated
01:31PM -24.6637 -47.3044 32° Northeast  Level Estimated
01:32PM -24.5840 -47.2498 32° Northeast  Level Estimated
01:33PM -24.5043 -47.1952 32° Northeast  Level Estimated
01:34PM -24.4246 -47.1408 32° Northeast  Level Estimated
01:35PM -24.3448 -47.0864 32° Northeast  Level Estimated
01:36PM -24.2650 -47.0320 32° Northeast  Level Estimated
01:37PM -24.1852 -46.9778 32° Northeast  Level Estimated
01:38PM -24.1054 -46.9236 32° Northeast  Level Estimated
01:39PM -24.0256 -46.8695 32° Northeast  Level Estimated
01:40PM -23.9458 -46.8154 32° Northeast  Level Estimated
01:41PM -23.8659 -46.7614 32° Northeast  Level Estimated
01:42PM -23.7860 -46.7075 32° Northeast  Level Estimated
01:43PM -23.7061 -46.6536 32° Northeast  Level Estimated
01:44PM -23.6262 -46.5998 32° Northeast  Level Estimated
01:45PM -23.5463 -46.5461 32° Northeast  Level Estimated
01:46PM -23.4663 -46.4925 32° Northeast  Level Estimated
01:47PM -23.3863 -46.4389 212° Southwest  Level Estimated
01:48PM -23.4663 -46.4925 32° Northeast  Level Estimated
01:49PM -23.3863 -46.4389 212° Southwest  Level Estimated
01:50PM -23.4663 -46.4925 32° Northeast  Level Estimated
01:51PM -23.3863 -46.4389 212° Southwest  Level Estimated
01:52PM -23.4663 -46.4925 32° Northeast  Level Estimated
01:53PM -23.3863 -46.4389 212° Southwest  Level Estimated
01:54PM -23.4663 -46.4925 32° Northeast  Level Estimated
01:55PM -23.3863 -46.4389 212° Southwest  Level Estimated
01:56PM -23.4663 -46.4925 32° Northeast  Level Estimated
01:57PM -23.3863 -46.4389 212° Southwest  Level Estimated
01:58PM -23.4663 -46.4925 212° Southwest  Level Estimated